Terminal Aerodrome Forecast
Issued by NWS

Home | Current Version | Previous Version | Text Only | Print | Product List | Glossary On
Versions: 1 2 3 4 5 6 7 8 9 10 11 12 13 14 15 16 17 18 19 20 21 22 23 24 25 26 27 28 29 30 31 32
000
FTUS46 KLOX 230259 AAB
TAFLAX
TAF AMD
KLAX 230259Z 2303/2406 25010KT P6SM BKN015 BKN050
      TEMPO 2303/2305 SCT015
     FM230500 25009KT P6SM BKN040
     FM231900 25012KT P6SM SCT050
     FM240400 24010KT P6SM BKN035=

USA.gov is the U.S. government's official web portal to all federal, state and local government web resources and services.